sensor_id;sensor_type;location;lat;lon;timestamp;pressure;altitude;pressure_sealevel;temperature;humidity
71948;BME280;63257;55.082;38.772;2023-05-12T00:00:46;100473.13;;;8.25;83.72
71948;BME280;63257;55.082;38.772;2023-05-12T00:03:12;100487.28;;;8.21;83.89
71948;BME280;63257;55.082;38.772;2023-05-12T00:05:38;100483.91;;;8.17;84.02
71948;BME280;63257;55.082;38.772;2023-05-12T00:08:04;100484.84;;;8.14;84.10
71948;BME280;63257;55.082;38.772;2023-05-12T00:10:30;100484.84;;;8.16;84.21
71948;BME280;63257;55.082;38.772;2023-05-12T00:12:56;100481.38;;;8.14;84.60
71948;BME280;63257;55.082;38.772;2023-05-12T00:15:22;100470.06;;;8.12;84.54
71948;BME280;63257;55.082;38.772;2023-05-12T00:17:48;100490.03;;;8.18;84.27
71948;BME280;63257;55.082;38.772;2023-05-12T00:20:14;100479.47;;;8.19;84.00
71948;BME280;63257;55.082;38.772;2023-05-12T00:22:40;100486.31;;;8.23;83.86
71948;BME280;63257;55.082;38.772;2023-05-12T00:25:06;100481.22;;;8.19;83.62
71948;BME280;63257;55.082;38.772;2023-05-12T00:27:32;100471.50;;;8.21;83.93
71948;BME280;63257;55.082;38.772;2023-05-12T00:29:58;100482.69;;;8.27;83.68
71948;BME280;63257;55.082;38.772;2023-05-12T00:32:25;100476.47;;;8.30;83.02
71948;BME280;63257;55.082;38.772;2023-05-12T00:34:52;100480.53;;;8.39;82.89
71948;BME280;63257;55.082;38.772;2023-05-12T00:37:19;100485.59;;;8.45;82.37
71948;BME280;63257;55.082;38.772;2023-05-12T00:39:45;100486.41;;;8.47;82.01
71948;BME280;63257;55.082;38.772;2023-05-12T00:42:11;100474.22;;;8.43;82.20
71948;BME280;63257;55.082;38.772;2023-05-12T00:44:37;100491.22;;;8.59;81.27
71948;BME280;63257;55.082;38.772;2023-05-12T00:47:04;100496.47;;;8.59;81.50
71948;BME280;63257;55.082;38.772;2023-05-12T00:49:30;100482.81;;;8.49;81.58
71948;BME280;63257;55.082;38.772;2023-05-12T00:51:57;100490.63;;;8.51;81.21
71948;BME280;63257;55.082;38.772;2023-05-12T00:54:27;100488.91;;;8.50;81.35
71948;BME280;63257;55.082;38.772;2023-05-12T00:56:54;100487.31;;;8.46;81.75
71948;BME280;63257;55.082;38.772;2023-05-12T00:59:21;100485.66;;;8.42;82.02
71948;BME280;63257;55.082;38.772;2023-05-12T01:01:48;100502.13;;;8.48;82.22
71948;BME280;63257;55.082;38.772;2023-05-12T01:04:15;100493.63;;;8.40;82.54
71948;BME280;63257;55.082;38.772;2023-05-12T01:06:47;100478.25;;;8.28;82.72
71948;BME280;63257;55.082;38.772;2023-05-12T01:09:14;100489.31;;;8.38;82.87
71948;BME280;63257;55.082;38.772;2023-05-12T01:11:41;100492.00;;;8.36;82.48
71948;BME280;63257;55.082;38.772;2023-05-12T01:14:07;100490.41;;;8.32;82.47
71948;BME280;63257;55.082;38.772;2023-05-12T01:16:38;100485.44;;;8.23;82.54
71948;BME280;63257;55.082;38.772;2023-05-12T01:19:08;100496.72;;;8.26;83.50
71948;BME280;63257;55.082;38.772;2023-05-12T01:21:39;100497.81;;;8.21;83.42
71948;BME280;63257;55.082;38.772;2023-05-12T01:24:07;100502.81;;;8.28;83.32
71948;BME280;63257;55.082;38.772;2023-05-12T01:26:34;100497.75;;;8.22;83.50
71948;BME280;63257;55.082;38.772;2023-05-12T01:29:01;100514.25;;;8.27;83.36
71948;BME280;63257;55.082;38.772;2023-05-12T01:31:27;100508.28;;;8.22;83.61
71948;BME280;63257;55.082;38.772;2023-05-12T01:33:54;100480.72;;;8.07;83.69
71948;BME280;63257;55.082;38.772;2023-05-12T01:36:20;100506.50;;;8.23;83.63
71948;BME280;63257;55.082;38.772;2023-05-12T01:38:46;100499.63;;;8.19;83.36
71948;BME280;63257;55.082;38.772;2023-05-12T01:41:12;100511.59;;;8.27;83.31
71948;BME280;63257;55.082;38.772;2023-05-12T01:43:37;100515.03;;;8.29;82.74
71948;BME280;63257;55.082;38.772;2023-05-12T01:46:03;100513.16;;;8.33;83.16
71948;BME280;63257;55.082;38.772;2023-05-12T01:48:30;100512.31;;;8.32;82.78
71948;BME280;63257;55.082;38.772;2023-05-12T01:50:58;100503.50;;;8.33;82.96
71948;BME280;63257;55.082;38.772;2023-05-12T01:53:25;100494.00;;;8.29;82.70
71948;BME280;63257;55.082;38.772;2023-05-12T01:55:51;100517.16;;;8.43;82.56
71948;BME280;63257;55.082;38.772;2023-05-12T01:58:18;100497.00;;;8.44;82.04
71948;BME280;63257;55.082;38.772;2023-05-12T02:00:45;100508.03;;;8.55;81.89
71948;BME280;63257;55.082;38.772;2023-05-12T02:03:14;100499.22;;;8.56;81.04
71948;BME280;63257;55.082;38.772;2023-05-12T02:05:41;100511.63;;;8.76;80.36
71948;BME280;63257;55.082;38.772;2023-05-12T02:08:06;100498.44;;;8.78;79.93
71948;BME280;63257;55.082;38.772;2023-05-12T02:10:32;100482.88;;;8.72;80.30
71948;BME280;63257;55.082;38.772;2023-05-12T02:12:59;100514.56;;;8.92;79.48
71948;BME280;63257;55.082;38.772;2023-05-12T02:15:26;100510.22;;;8.91;78.89
71948;BME280;63257;55.082;38.772;2023-05-12T02:17:54;100504.94;;;8.91;79.34
71948;BME280;63257;55.082;38.772;2023-05-12T02:20:21;100510.22;;;8.91;78.98
71948;BME280;63257;55.082;38.772;2023-05-12T02:22:47;100499.75;;;8.90;79.31
71948;BME280;63257;55.082;38.772;2023-05-12T02:25:13;100513.34;;;9.01;78.67
71948;BME280;63257;55.082;38.772;2023-05-12T02:27:39;100504.63;;;9.00;78.75
71948;BME280;63257;55.082;38.772;2023-05-12T02:30:06;100516.63;;;9.08;78.57
71948;BME280;63257;55.082;38.772;2023-05-12T02:32:33;100517.56;;;9.07;78.80
71948;BME280;63257;55.082;38.772;2023-05-12T02:35:00;100513.22;;;9.06;78.09
71948;BME280;63257;55.082;38.772;2023-05-12T02:37:26;100520.28;;;9.04;78.14
71948;BME280;63257;55.082;38.772;2023-05-12T02:39:52;100512.44;;;9.02;78.96
71948;BME280;63257;55.082;38.772;2023-05-12T02:42:18;100511.53;;;9.03;78.61
71948;BME280;63257;55.082;38.772;2023-05-12T02:44:44;100514.13;;;9.05;78.06
71948;BME280;63257;55.082;38.772;2023-05-12T02:47:10;100508.09;;;9.01;78.37
71948;BME280;63257;55.082;38.772;2023-05-12T02:49:36;100511.81;;;8.95;78.05
71948;BME280;63257;55.082;38.772;2023-05-12T02:52:03;100527.28;;;9.05;78.29
71948;BME280;63257;55.082;38.772;2023-05-12T02:54:29;100499.47;;;8.97;77.88
71948;BME280;63257;55.082;38.772;2023-05-12T02:56:55;100519.94;;;9.13;78.36
71948;BME280;63257;55.082;38.772;2023-05-12T02:59:22;100533.94;;;9.15;77.64
71948;BME280;63257;55.082;38.772;2023-05-12T03:01:48;100493.19;;;9.02;77.78
71948;BME280;63257;55.082;38.772;2023-05-12T03:04:14;100517.81;;;9.23;76.84
71948;BME280;63257;55.082;38.772;2023-05-12T03:06:41;100526.41;;;9.28;76.23
71948;BME280;63257;55.082;38.772;2023-05-12T03:09:07;100517.53;;;9.30;76.21
71948;BME280;63257;55.082;38.772;2023-05-12T03:11:33;100516.38;;;9.38;75.86
71948;BME280;63257;55.082;38.772;2023-05-12T03:13:59;100510.97;;;9.41;76.19
71948;BME280;63257;55.082;38.772;2023-05-12T03:16:25;100505.63;;;9.42;74.66
71948;BME280;63257;55.082;38.772;2023-05-12T03:18:51;100513.06;;;9.55;73.98
71948;BME280;63257;55.082;38.772;2023-05-12T03:21:18;100513.66;;;9.61;73.99
71948;BME280;63257;55.082;38.772;2023-05-12T03:23:43;100504.09;;;9.59;73.83
71948;BME280;63257;55.082;38.772;2023-05-12T03:26:10;100513.16;;;9.74;73.25
71948;BME280;63257;55.082;38.772;2023-05-12T03:28:36;100513.66;;;9.83;73.07
71948;BME280;63257;55.082;38.772;2023-05-12T03:31:02;100515.13;;;9.91;73.94
71948;BME280;63257;55.082;38.772;2023-05-12T03:33:28;100527.28;;;9.95;73.13
71948;BME280;63257;55.082;38.772;2023-05-12T03:35:54;100520.81;;;10.02;71.56
71948;BME280;63257;55.082;38.772;2023-05-12T03:38:22;100522.25;;;10.09;72.04
71948;BME280;63257;55.082;38.772;2023-05-12T03:40:48;100511.47;;;10.15;72.23
71948;BME280;63257;55.082;38.772;2023-05-12T03:43:18;100527.91;;;10.22;71.27
71948;BME280;63257;55.082;38.772;2023-05-12T03:45:49;100523.19;;;10.29;71.30
71948;BME280;63257;55.082;38.772;2023-05-12T03:48:18;100519.63;;;10.30;71.28
71948;BME280;63257;55.082;38.772;2023-05-12T03:50:44;100496.25;;;10.22;70.50
71948;BME280;63257;55.082;38.772;2023-05-12T03:53:09;100501.97;;;10.32;70.16
71948;BME280;63257;55.082;38.772;2023-05-12T03:55:35;100494.59;;;10.40;70.26
71948;BME280;63257;55.082;38.772;2023-05-12T03:58:02;100511.56;;;10.55;70.07
71948;BME280;63257;55.082;38.772;2023-05-12T04:00:28;100501.00;;;10.55;68.11
71948;BME280;63257;55.082;38.772;2023-05-12T04:02:54;100518.72;;;10.72;67.44
71948;BME280;63257;55.082;38.772;2023-05-12T04:05:22;100513.28;;;10.75;68.09
71948;BME280;63257;55.082;38.772;2023-05-12T04:07:48;100511.09;;;10.85;68.21
71948;BME280;63257;55.082;38.772;2023-05-12T04:10:14;100515.81;;;10.97;67.27
71948;BME280;63257;55.082;38.772;2023-05-12T04:12:39;100524.25;;;11.06;67.44
71948;BME280;63257;55.082;38.772;2023-05-12T04:15:25;100508.03;;;11.13;66.97
71948;BME280;63257;55.082;38.772;2023-05-12T04:17:51;100514.91;;;11.17;65.34
71948;BME280;63257;55.082;38.772;2023-05-12T04:20:18;100511.75;;;11.28;65.95
71948;BME280;63257;55.082;38.772;2023-05-12T04:22:44;100514.09;;;11.34;65.51
71948;BME280;63257;55.082;38.772;2023-05-12T04:25:10;100502.38;;;11.40;64.21
71948;BME280;63257;55.082;38.772;2023-05-12T04:27:37;100507.13;;;11.51;63.65
71948;BME280;63257;55.082;38.772;2023-05-12T04:30:05;100495.72;;;11.50;63.35
71948;BME280;63257;55.082;38.772;2023-05-12T04:32:34;100507.91;;;11.72;63.17
71948;BME280;63257;55.082;38.772;2023-05-12T04:35:00;100511.94;;;11.79;62.49
71948;BME280;63257;55.082;38.772;2023-05-12T04:37:27;100514.34;;;11.84;62.52
71948;BME280;63257;55.082;38.772;2023-05-12T04:39:53;100515.66;;;11.94;62.92
71948;BME280;63257;55.082;38.772;2023-05-12T04:42:19;100511.53;;;12.06;62.91
71948;BME280;63257;55.082;38.772;2023-05-12T04:44:45;100517.38;;;12.13;61.41
71948;BME280;63257;55.082;38.772;2023-05-12T04:47:11;100514.25;;;12.22;61.52
71948;BME280;63257;55.082;38.772;2023-05-12T04:49:37;100513.97;;;12.28;62.09
71948;BME280;63257;55.082;38.772;2023-05-12T04:52:03;100509.25;;;12.33;58.97
71948;BME280;63257;55.082;38.772;2023-05-12T04:54:30;100508.88;;;12.41;59.92
71948;BME280;63257;55.082;38.772;2023-05-12T04:56:57;100507.59;;;12.48;58.16
71948;BME280;63257;55.082;38.772;2023-05-12T05:03:28;100507.31;;;12.70;58.36
71948;BME280;63257;55.082;38.772;2023-05-12T05:05:54;100506.75;;;12.81;57.85
71948;BME280;63257;55.082;38.772;2023-05-12T05:12:39;100491.38;;;12.88;58.66
71948;BME280;63257;55.082;38.772;2023-05-12T05:15:05;100507.84;;;13.11;58.86
71948;BME280;63257;55.082;38.772;2023-05-12T05:17:34;100500.56;;;13.14;57.41
71948;BME280;63257;55.082;38.772;2023-05-12T05:20:01;100495.38;;;13.29;58.11
71948;BME280;63257;55.082;38.772;2023-05-12T05:22:32;100492.22;;;13.38;56.83
71948;BME280;63257;55.082;38.772;2023-05-12T05:24:58;100496.06;;;13.48;55.65
71948;BME280;63257;55.082;38.772;2023-05-12T05:27:24;100498.03;;;13.61;56.12
71948;BME280;63257;55.082;38.772;2023-05-12T05:29:53;100488.25;;;13.61;54.66
71948;BME280;63257;55.082;38.772;2023-05-12T05:32:19;100494.56;;;13.74;53.86
71948;BME280;63257;55.082;38.772;2023-05-12T05:34:46;100483.63;;;13.81;53.87
71948;BME280;63257;55.082;38.772;2023-05-12T05:37:11;100473.66;;;13.84;53.64
71948;BME280;63257;55.082;38.772;2023-05-12T05:39:37;100492.00;;;14.03;53.23
71948;BME280;63257;55.082;38.772;2023-05-12T05:42:03;100473.88;;;13.96;52.05
71948;BME280;63257;55.082;38.772;2023-05-12T05:44:29;100489.75;;;14.12;50.13
71948;BME280;63257;55.082;38.772;2023-05-12T05:46:55;100496.16;;;14.23;50.57
71948;BME280;63257;55.082;38.772;2023-05-12T05:49:23;100500.13;;;14.31;50.86
71948;BME280;63257;55.082;38.772;2023-05-12T05:51:50;100484.50;;;14.26;51.32
71948;BME280;63257;55.082;38.772;2023-05-12T05:54:16;100500.22;;;14.43;51.53
71948;BME280;63257;55.082;38.772;2023-05-12T05:56:42;100488.56;;;14.46;50.41
71948;BME280;63257;55.082;38.772;2023-05-12T05:59:08;100486.31;;;14.54;50.19
71948;BME280;63257;55.082;38.772;2023-05-12T06:01:34;100485.84;;;14.62;50.40
71948;BME280;63257;55.082;38.772;2023-05-12T06:04:01;100477.00;;;14.62;49.94
71948;BME280;63257;55.082;38.772;2023-05-12T06:06:27;100480.75;;;14.73;49.06
71948;BME280;63257;55.082;38.772;2023-05-12T06:08:53;100483.88;;;14.80;50.02
71948;BME280;63257;55.082;38.772;2023-05-12T06:11:20;100483.22;;;14.91;48.98
71948;BME280;63257;55.082;38.772;2023-05-12T06:13:46;100478.25;;;14.99;47.42
71948;BME280;63257;55.082;38.772;2023-05-12T06:16:12;100484.59;;;15.11;47.16
71948;BME280;63257;55.082;38.772;2023-05-12T06:18:38;100477.94;;;15.18;45.77
71948;BME280;63257;55.082;38.772;2023-05-12T06:21:04;100476.91;;;15.21;46.24
71948;BME280;63257;55.082;38.772;2023-05-12T06:23:30;100480.00;;;15.27;46.56
71948;BME280;63257;55.082;38.772;2023-05-12T06:25:56;100480.44;;;15.34;45.69
71948;BME280;63257;55.082;38.772;2023-05-12T06:28:22;100478.34;;;15.39;44.32
71948;BME280;63257;55.082;38.772;2023-05-12T06:30:48;100474.34;;;15.47;43.27
71948;BME280;63257;55.082;38.772;2023-05-12T06:33:16;100480.00;;;15.55;45.26
71948;BME280;63257;55.082;38.772;2023-05-12T06:35:43;100462.25;;;15.55;45.76
71948;BME280;63257;55.082;38.772;2023-05-12T06:38:09;100466.88;;;15.66;43.87
71948;BME280;63257;55.082;38.772;2023-05-12T06:40:35;100453.34;;;15.69;44.60
71948;BME280;63257;55.082;38.772;2023-05-12T06:43:01;100460.91;;;15.75;44.34
71948;BME280;63257;55.082;38.772;2023-05-12T06:45:27;100466.09;;;15.91;46.23
71948;BME280;63257;55.082;38.772;2023-05-12T06:47:53;100466.09;;;16.04;46.35
71948;BME280;63257;55.082;38.772;2023-05-12T06:50:19;100456.72;;;15.99;44.90
71948;BME280;63257;55.082;38.772;2023-05-12T06:52:50;100475.41;;;16.11;43.17
71948;BME280;63257;55.082;38.772;2023-05-12T06:55:16;100469.66;;;16.18;42.45
71948;BME280;63257;55.082;38.772;2023-05-12T06:57:46;100456.00;;;16.22;42.40
71948;BME280;63257;55.082;38.772;2023-05-12T07:00:12;100458.69;;;16.35;39.94
71948;BME280;63257;55.082;38.772;2023-05-12T07:02:39;100456.34;;;16.43;40.94
71948;BME280;63257;55.082;38.772;2023-05-12T07:05:05;100457.06;;;16.45;39.17
71948;BME280;63257;55.082;38.772;2023-05-12T07:07:31;100452.19;;;16.52;38.96
71948;BME280;63257;55.082;38.772;2023-05-12T07:09:56;100456.44;;;16.55;39.76
71948;BME280;63257;55.082;38.772;2023-05-12T07:12:22;100454.09;;;16.63;39.92
71948;BME280;63257;55.082;38.772;2023-05-12T07:14:48;100441.22;;;16.57;38.91
71948;BME280;63257;55.082;38.772;2023-05-12T07:17:14;100457.06;;;16.71;38.78
71948;BME280;63257;55.082;38.772;2023-05-12T07:19:40;100452.03;;;16.79;39.20
71948;BME280;63257;55.082;38.772;2023-05-12T07:22:08;100459.31;;;16.90;38.04
71948;BME280;63257;55.082;38.772;2023-05-12T07:24:34;100444.56;;;16.98;36.00
71948;BME280;63257;55.082;38.772;2023-05-12T07:27:00;100412.34;;;16.88;35.97
71948;BME280;63257;55.082;38.772;2023-05-12T07:29:25;100453.16;;;17.14;35.88
71948;BME280;63257;55.082;38.772;2023-05-12T07:31:51;100444.59;;;17.22;34.70
71948;BME280;63257;55.082;38.772;2023-05-12T07:34:17;100426.59;;;17.12;34.20
71948;BME280;63257;55.082;38.772;2023-05-12T07:36:43;100444.78;;;17.32;34.09
71948;BME280;63257;55.082;38.772;2023-05-12T07:39:09;100442.78;;;17.46;32.67
71948;BME280;63257;55.082;38.772;2023-05-12T07:41:34;100438.41;;;17.45;32.99
71948;BME280;63257;55.082;38.772;2023-05-12T07:44:00;100435.31;;;17.52;33.06
71948;BME280;63257;55.082;38.772;2023-05-12T07:46:27;100423.25;;;17.46;33.83
71948;BME280;63257;55.082;38.772;2023-05-12T07:48:53;100433.38;;;17.65;33.25
71948;BME280;63257;55.082;38.772;2023-05-12T07:51:18;100425.06;;;17.70;33.23
71948;BME280;63257;55.082;38.772;2023-05-12T07:53:44;100438.72;;;17.65;33.50
71948;BME280;63257;55.082;38.772;2023-05-12T07:56:10;100426.53;;;17.74;33.83
71948;BME280;63257;55.082;38.772;2023-05-12T07:58:36;100419.00;;;17.79;34.51
71948;BME280;63257;55.082;38.772;2023-05-12T08:01:02;100427.63;;;17.83;34.59
71948;BME280;63257;55.082;38.772;2023-05-12T08:03:35;100431.25;;;17.81;34.53
71948;BME280;63257;55.082;38.772;2023-05-12T08:06:00;100436.38;;;17.85;35.38
71948;BME280;63257;55.082;38.772;2023-05-12T08:08:28;100430.19;;;17.84;34.81
71948;BME280;63257;55.082;38.772;2023-05-12T08:10:53;100434.03;;;17.93;35.24
71948;BME280;63257;55.082;38.772;2023-05-12T08:13:19;100414.97;;;17.97;35.25
71948;BME280;63257;55.082;38.772;2023-05-12T08:15:45;100415.59;;;18.01;33.99
71948;BME280;63257;55.082;38.772;2023-05-12T08:18:12;100425.91;;;18.28;34.27
71948;BME280;63257;55.082;38.772;2023-05-12T08:20:38;100436.78;;;18.38;34.04
71948;BME280;63257;55.082;38.772;2023-05-12T08:23:04;100420.59;;;18.40;32.86
71948;BME280;63257;55.082;38.772;2023-05-12T08:25:29;100427.28;;;18.57;33.29
71948;BME280;63257;55.082;38.772;2023-05-12T08:27:55;100413.41;;;18.52;30.87
71948;BME280;63257;55.082;38.772;2023-05-12T08:30:23;100425.81;;;18.64;31.46
71948;BME280;63257;55.082;38.772;2023-05-12T08:32:49;100414.50;;;18.83;31.90
71948;BME280;63257;55.082;38.772;2023-05-12T08:35:15;100419.00;;;18.94;31.94
71948;BME280;63257;55.082;38.772;2023-05-12T08:37:41;100404.91;;;18.80;29.96
71948;BME280;63257;55.082;38.772;2023-05-12T08:40:14;100406.59;;;18.81;31.53
71948;BME280;63257;55.082;38.772;2023-05-12T08:43:25;100421.44;;;18.97;31.75
71948;BME280;63257;55.082;38.772;2023-05-12T08:45:31;100406.72;;;19.03;28.58
71948;BME280;63257;55.082;38.772;2023-05-12T08:47:58;100409.25;;;19.15;29.35
71948;BME280;63257;55.082;38.772;2023-05-12T08:50:25;100392.81;;;19.20;28.94
71948;BME280;63257;55.082;38.772;2023-05-12T08:52:52;100399.81;;;19.32;29.29
71948;BME280;63257;55.082;38.772;2023-05-12T08:55:18;100408.09;;;19.29;29.16
71948;BME280;63257;55.082;38.772;2023-05-12T08:57:44;100387.25;;;19.44;27.91
71948;BME280;63257;55.082;38.772;2023-05-12T09:00:13;100358.56;;;19.35;28.99
71948;BME280;63257;55.082;38.772;2023-05-12T09:02:39;100400.69;;;19.54;28.05
71948;BME280;63257;55.082;38.772;2023-05-12T09:05:08;100389.31;;;19.41;25.79
71948;BME280;63257;55.082;38.772;2023-05-12T09:07:37;100392.31;;;19.15;26.32
71948;BME280;63257;55.082;38.772;2023-05-12T09:10:05;100388.06;;;19.24;25.67
71948;BME280;63257;55.082;38.772;2023-05-12T09:12:33;100381.34;;;19.62;26.12
71948;BME280;63257;55.082;38.772;2023-05-12T09:15:06;100380.56;;;19.92;26.37
71948;BME280;63257;55.082;38.772;2023-05-12T09:17:36;100373.19;;;19.85;25.08
71948;BME280;63257;55.082;38.772;2023-05-12T09:20:03;100366.56;;;19.67;25.82
71948;BME280;63257;55.082;38.772;2023-05-12T09:22:33;100365.47;;;19.91;26.70
71948;BME280;63257;55.082;38.772;2023-05-12T09:25:13;100379.09;;;20.09;26.81
71948;BME280;63257;55.082;38.772;2023-05-12T09:27:41;100379.88;;;20.21;26.71
71948;BME280;63257;55.082;38.772;2023-05-12T09:30:07;100361.44;;;20.28;25.15
71948;BME280;63257;55.082;38.772;2023-05-12T09:32:34;100361.94;;;20.53;25.39
71948;BME280;63257;55.082;38.772;2023-05-12T09:35:02;100362.38;;;20.67;23.59
71948;BME280;63257;55.082;38.772;2023-05-12T09:37:32;100363.75;;;20.83;23.83
71948;BME280;63257;55.082;38.772;2023-05-12T09:40:03;100354.47;;;21.16;23.27
71948;BME280;63257;55.082;38.772;2023-05-12T09:42:33;100327.59;;;21.46;22.92
71948;BME280;63257;55.082;38.772;2023-05-12T09:45:07;100355.72;;;21.42;22.92
71948;BME280;63257;55.082;38.772;2023-05-12T09:47:37;100335.22;;;20.92;23.35
71948;BME280;63257;55.082;38.772;2023-05-12T09:50:06;100369.53;;;20.88;24.18
71948;BME280;63257;55.082;38.772;2023-05-12T09:52:38;100363.06;;;20.50;24.04
71948;BME280;63257;55.082;38.772;2023-05-12T09:55:09;100374.38;;;20.23;24.18
71948;BME280;63257;55.082;38.772;2023-05-12T09:57:43;100336.88;;;20.02;24.22
71948;BME280;63257;55.082;38.772;2023-05-12T10:00:12;100357.66;;;20.09;24.71
71948;BME280;63257;55.082;38.772;2023-05-12T10:02:47;100374.53;;;20.21;26.08
71948;BME280;63257;55.082;38.772;2023-05-12T10:05:17;100372.41;;;20.25;26.20
71948;BME280;63257;55.082;38.772;2023-05-12T10:07:47;100374.09;;;20.26;26.00
71948;BME280;63257;55.082;38.772;2023-05-12T10:10:17;100374.66;;;20.20;25.93
71948;BME280;63257;55.082;38.772;2023-05-12T10:12:45;100368.94;;;20.34;25.55
71948;BME280;63257;55.082;38.772;2023-05-12T10:15:12;100367.91;;;20.25;26.46
71948;BME280;63257;55.082;38.772;2023-05-12T10:17:39;100361.09;;;20.11;27.04
71948;BME280;63257;55.082;38.772;2023-05-12T10:20:08;100369.41;;;20.18;27.37
71948;BME280;63257;55.082;38.772;2023-05-12T10:22:37;100359.47;;;20.30;27.64
71948;BME280;63257;55.082;38.772;2023-05-12T10:25:05;100368.97;;;20.44;26.77
71948;BME280;63257;55.082;38.772;2023-05-12T10:27:32;100368.88;;;20.24;26.92
71948;BME280;63257;55.082;38.772;2023-05-12T10:29:59;100359.47;;;20.30;26.84
71948;BME280;63257;55.082;38.772;2023-05-12T10:32:26;100354.47;;;20.15;25.63
71948;BME280;63257;55.082;38.772;2023-05-12T10:34:53;100364.91;;;20.19;25.47
71948;BME280;63257;55.082;38.772;2023-05-12T10:37:21;100362.13;;;20.30;25.02
71948;BME280;63257;55.082;38.772;2023-05-12T10:39:49;100364.53;;;20.33;25.53
71948;BME280;63257;55.082;38.772;2023-05-12T10:42:20;100356.59;;;20.53;25.31
71948;BME280;63257;55.082;38.772;2023-05-12T10:44:54;100332.72;;;20.49;24.58
71948;BME280;63257;55.082;38.772;2023-05-12T10:47:24;100338.09;;;20.59;23.98
71948;BME280;63257;55.082;38.772;2023-05-12T10:49:57;100354.28;;;20.69;23.86
71948;BME280;63257;55.082;38.772;2023-05-12T10:52:24;100339.84;;;20.70;24.04
71948;BME280;63257;55.082;38.772;2023-05-12T10:54:59;100336.66;;;20.45;23.82
71948;BME280;63257;55.082;38.772;2023-05-12T10:57:25;100333.66;;;20.79;24.85
71948;BME280;63257;55.082;38.772;2023-05-12T11:00:00;100329.19;;;20.90;24.85
71948;BME280;63257;55.082;38.772;2023-05-12T11:02:29;100340.06;;;21.17;23.64
71948;BME280;63257;55.082;38.772;2023-05-12T11:05:03;100336.53;;;21.56;23.60
71948;BME280;63257;55.082;38.772;2023-05-12T11:07:34;100333.94;;;21.84;23.12
71948;BME280;63257;55.082;38.772;2023-05-12T11:10:02;100335.03;;;22.01;23.22
71948;BME280;63257;55.082;38.772;2023-05-12T11:12:33;100338.91;;;22.54;22.65
71948;BME280;63257;55.082;38.772;2023-05-12T11:15:03;100339.66;;;22.74;21.82
71948;BME280;63257;55.082;38.772;2023-05-12T11:17:33;100332.69;;;23.35;20.71
71948;BME280;63257;55.082;38.772;2023-05-12T11:20:02;100314.31;;;23.31;20.21
71948;BME280;63257;55.082;38.772;2023-05-12T11:22:32;100319.78;;;23.65;20.05
71948;BME280;63257;55.082;38.772;2023-05-12T11:24:57;100328.75;;;24.61;20.31
71948;BME280;63257;55.082;38.772;2023-05-12T11:27:33;100320.56;;;24.02;20.38
71948;BME280;63257;55.082;38.772;2023-05-12T11:30:00;100319.84;;;23.74;19.88
71948;BME280;63257;55.082;38.772;2023-05-12T11:32:32;100333.97;;;22.95;20.59
71948;BME280;63257;55.082;38.772;2023-05-12T11:35:15;100333.03;;;22.31;21.64
71948;BME280;63257;55.082;38.772;2023-05-12T11:37:42;100324.59;;;22.26;21.76
71948;BME280;63257;55.082;38.772;2023-05-12T11:40:26;100322.69;;;22.08;22.23
71948;BME280;63257;55.082;38.772;2023-05-12T11:42:52;100321.34;;;21.75;22.33
71948;BME280;63257;55.082;38.772;2023-05-12T11:45:21;100330.97;;;21.77;22.10
71948;BME280;63257;55.082;38.772;2023-05-12T11:47:47;100305.84;;;21.68;22.31
71948;BME280;63257;55.082;38.772;2023-05-12T11:50:19;100305.00;;;21.68;22.63
71948;BME280;63257;55.082;38.772;2023-05-12T11:52:46;100332.56;;;21.60;22.86
71948;BME280;63257;55.082;38.772;2023-05-12T11:55:19;100323.38;;;21.33;23.67
71948;BME280;63257;55.082;38.772;2023-05-12T11:57:59;100276.63;;;21.16;23.79
71948;BME280;63257;55.082;38.772;2023-05-12T12:00:27;100320.41;;;21.66;23.93
71948;BME280;63257;55.082;38.772;2023-05-12T12:03:11;100322.44;;;22.29;23.19
71948;BME280;63257;55.082;38.772;2023-05-12T12:05:38;100322.88;;;21.97;23.68
71948;BME280;63257;55.082;38.772;2023-05-12T12:08:12;100308.38;;;21.50;23.88
71948;BME280;63257;55.082;38.772;2023-05-12T12:10:47;100325.19;;;21.43;23.61
71948;BME280;63257;55.082;38.772;2023-05-12T12:13:24;100319.97;;;21.41;23.98
71948;BME280;63257;55.082;38.772;2023-05-12T12:15:51;100322.25;;;21.16;24.00
71948;BME280;63257;55.082;38.772;2023-05-12T12:18:17;100319.56;;;21.16;24.45
71948;BME280;63257;55.082;38.772;2023-05-12T12:20:45;100313.78;;;20.92;24.33
71948;BME280;63257;55.082;38.772;2023-05-12T12:23:11;100320.53;;;20.86;24.53
71948;BME280;63257;55.082;38.772;2023-05-12T12:25:37;100317.72;;;20.88;24.50
71948;BME280;63257;55.082;38.772;2023-05-12T12:28:03;100311.22;;;20.71;24.36
71948;BME280;63257;55.082;38.772;2023-05-12T12:30:29;100311.91;;;20.82;24.72
71948;BME280;63257;55.082;38.772;2023-05-12T12:32:55;100295.13;;;20.90;24.81
71948;BME280;63257;55.082;38.772;2023-05-12T12:35:21;100318.00;;;20.94;24.15
71948;BME280;63257;55.082;38.772;2023-05-12T12:37:49;100307.88;;;21.94;23.29
71948;BME280;63257;55.082;38.772;2023-05-12T12:40:18;100305.22;;;22.96;22.25
71948;BME280;63257;55.082;38.772;2023-05-12T12:42:46;100280.16;;;22.95;21.87
71948;BME280;63257;55.082;38.772;2023-05-12T12:45:12;100301.16;;;23.28;21.22
71948;BME280;63257;55.082;38.772;2023-05-12T12:47:38;100285.63;;;23.66;21.06
71948;BME280;63257;55.082;38.772;2023-05-12T12:50:06;100293.84;;;23.64;21.04
71948;BME280;63257;55.082;38.772;2023-05-12T12:52:32;100280.91;;;23.42;20.43